KHSP/HSP METAR and TAF weather

Enter ICAO airport designator
Station Type Date Time Source
KHSP METAR 2019/12/08 00:55 UTC NOAA

KHSP 080055Z AUTO 00000KT 10SM CLR M01/M07 A3031 RMK AO2 T10131070


Station Type Date Time Source
KHSP Decoded METAR 2019/12/08 00:55 UTC NOAA

Hot Springs / Ingalls, VA, United States (KHSP) 37-57N 079-50W
Dec 07, 2019 - 07:55 PM EST / 2019.12.08 0055 UTC
Wind: Calm:0
Visibility: 10 mile(s):0
Sky conditions: clear
Temperature: 29.7 F (-1.3 C)
Dew Point: 19.4 F (-7.0 C)
Relative Humidity: 65%
Pressure (altimeter): 30.31 in. Hg (1026 hPa)
ob: KHSP 080055Z AUTO 00000KT 10SM CLR M01/M07 A3031 RMK AO2 T10131070
cycle: 1

Station Type Date Time Source
KHSP TAF UTC NOAA

Error!

Example: see airport list